createdAt,value
2023-05-23T00:01:31.674Z,13.10
2023-05-23T00:04:03.615Z,14.27
2023-05-23T00:06:32.597Z,14.40
2023-05-23T00:09:05.056Z,13.85
2023-05-23T00:13:12.995Z,16.38
2023-05-23T00:16:56.090Z,14.90
2023-05-23T00:19:23.518Z,15.18
2023-05-23T00:23:19.662Z,15.18
2023-05-23T00:25:53.582Z,16.95
2023-05-23T00:29:36.759Z,16.42
2023-05-23T00:33:22.462Z,16.60
2023-05-23T00:35:50.189Z,16.70
2023-05-23T00:38:18.877Z,16.52
2023-05-23T00:40:47.013Z,17.25
2023-05-23T00:44:30.148Z,15.75
2023-05-23T00:48:12.923Z,19.70
2023-05-23T00:51:56.119Z,19.35
2023-05-23T00:55:40.882Z,18.50
2023-05-23T00:58:11.610Z,18.50
2023-05-23T01:02:01.251Z,17.77
2023-05-23T01:05:44.445Z,18.42
2023-05-23T01:09:31.178Z,18.98
2023-05-23T01:12:49.033Z,20.40
2023-05-23T01:15:52.564Z,24.20
2023-05-23T01:19:15.730Z,21.27
2023-05-23T01:22:03.877Z,22.27
2023-05-23T01:24:58.859Z,27.75
2023-05-23T01:27:56.876Z,30.75
2023-05-23T01:30:31.380Z,27.83
2023-05-23T01:33:01.648Z,32.60
2023-05-23T01:35:32.273Z,31.40
2023-05-23T01:38:03.634Z,31.98
2023-05-23T01:40:33.968Z,29.13
2023-05-23T01:43:02.882Z,24.17
2023-05-23T01:45:32.089Z,20.42
2023-05-23T01:48:01.453Z,20.30
2023-05-23T01:50:30.455Z,20.75
2023-05-23T01:53:05.777Z,18.92
2023-05-23T01:55:35.822Z,16.60
2023-05-23T01:58:07.457Z,16.00
2023-05-23T02:00:36.273Z,17.20
2023-05-23T02:03:05.040Z,18.38
2023-05-23T02:05:37.042Z,17.05
2023-05-23T02:08:06.329Z,17.95
2023-05-23T02:10:35.802Z,18.15
2023-05-23T02:13:04.425Z,18.73
2023-05-23T02:15:32.825Z,19.25
2023-05-23T02:18:03.394Z,18.15
2023-05-23T02:20:32.309Z,22.08
2023-05-23T02:23:01.894Z,21.10
2023-05-23T02:25:31.565Z,23.35
2023-05-23T02:27:59.889Z,25.33
2023-05-23T02:30:33.416Z,26.17
2023-05-23T02:33:07.566Z,24.40
2023-05-23T02:35:35.968Z,27.17
2023-05-23T02:38:09.713Z,26.65
2023-05-23T02:40:40.078Z,25.23
2023-05-23T02:43:10.987Z,26.02
2023-05-23T02:45:42.672Z,26.30
2023-05-23T02:48:12.208Z,24.00
2023-05-23T02:50:39.973Z,26.95
2023-05-23T02:53:10.258Z,25.33
2023-05-23T02:55:38.761Z,28.67
2023-05-23T02:58:10.969Z,29.80
2023-05-23T03:00:39.436Z,30.27
2023-05-23T03:03:07.491Z,27.92
2023-05-23T03:05:35.176Z,26.20
2023-05-23T03:08:03.158Z,25.55
2023-05-23T03:10:31.809Z,24.75
2023-05-23T03:12:59.699Z,24.52
2023-05-23T03:15:28.034Z,26.60
2023-05-23T03:17:56.855Z,26.17
2023-05-23T03:20:24.741Z,27.98
2023-05-23T03:22:52.753Z,27.48
2023-05-23T03:25:21.043Z,27.00
2023-05-23T03:27:59.986Z,23.73
2023-05-23T03:30:35.296Z,26.30
2023-05-23T03:33:05.023Z,24.13
2023-05-23T03:35:33.190Z,22.08
2023-05-23T03:38:01.182Z,20.33
2023-05-23T03:40:30.230Z,21.15
2023-05-23T03:43:07.263Z,24.40
2023-05-23T03:45:37.429Z,25.52
2023-05-23T03:48:12.507Z,23.25
2023-05-23T03:50:41.548Z,25.00
2023-05-23T03:53:09.985Z,21.92
2023-05-23T03:55:40.546Z,23.05
2023-05-23T03:58:10.931Z,21.75
2023-05-23T04:00:43.090Z,22.67
2023-05-23T04:03:15.832Z,23.55
2023-05-23T04:05:44.278Z,23.75
2023-05-23T04:08:14.274Z,24.77
2023-05-23T04:10:42.583Z,36.85
2023-05-23T04:13:11.136Z,30.92
2023-05-23T04:15:40.034Z,28.25
2023-05-23T04:18:11.569Z,38.38
2023-05-23T04:20:39.300Z,33.70
2023-05-23T04:23:33.085Z,32.15
2023-05-23T04:26:01.152Z,32.10
2023-05-23T04:28:37.971Z,37.47
2023-05-23T04:31:06.067Z,41.70
2023-05-23T04:33:39.331Z,42.72
2023-05-23T04:36:10.045Z,49.00
2023-05-23T04:38:44.387Z,43.83
2023-05-23T04:41:17.731Z,45.92
2023-05-23T04:43:59.063Z,43.65
2023-05-23T04:46:42.710Z,42.63
2023-05-23T04:49:34.445Z,44.28
2023-05-23T04:52:07.221Z,38.42
2023-05-23T04:54:45.221Z,44.60
2023-05-23T04:57:13.590Z,42.92
2023-05-23T04:59:42.793Z,40.58
2023-05-23T05:02:11.616Z,43.58
2023-05-23T05:04:40.859Z,41.53
2023-05-23T05:07:09.621Z,41.35
2023-05-23T05:09:37.605Z,43.22
2023-05-23T05:12:05.935Z,41.63
2023-05-23T05:14:33.588Z,41.25
2023-05-23T05:17:02.877Z,43.38
2023-05-23T05:19:38.936Z,39.95
2023-05-23T05:22:08.366Z,41.13
2023-05-23T05:24:37.638Z,38.40
2023-05-23T05:27:06.438Z,36.35
2023-05-23T05:29:34.357Z,35.75
2023-05-23T05:32:09.293Z,36.47
2023-05-23T05:34:40.634Z,36.83
2023-05-23T05:37:08.518Z,37.80
2023-05-23T05:39:36.258Z,36.20
2023-05-23T05:42:07.844Z,38.17
2023-05-23T05:44:36.535Z,37.45
2023-05-23T05:47:05.193Z,36.05
2023-05-23T05:49:34.254Z,38.88
2023-05-23T05:52:03.915Z,37.95
2023-05-23T05:54:33.162Z,38.15
2023-05-23T05:57:01.422Z,37.20
2023-05-23T05:59:31.127Z,37.50
2023-05-23T06:02:00.783Z,36.03
2023-05-23T06:04:29.485Z,34.50
2023-05-23T06:07:01.935Z,36.08
2023-05-23T06:09:30.767Z,32.58
2023-05-23T06:11:58.276Z,33.03
2023-05-23T06:14:26.085Z,32.75
2023-05-23T06:16:54.038Z,31.40
2023-05-23T06:19:22.242Z,32.80
2023-05-23T06:21:56.789Z,33.08
2023-05-23T06:24:26.597Z,31.63
2023-05-23T06:26:54.504Z,30.73
2023-05-23T06:29:22.340Z,33.25
2023-05-23T06:31:50.062Z,31.52
2023-05-23T06:34:17.919Z,30.10
2023-05-23T06:36:48.914Z,32.78
2023-05-23T06:39:17.240Z,32.50
2023-05-23T06:41:44.764Z,31.08
2023-05-23T06:44:12.059Z,30.23
2023-05-23T06:46:51.120Z,31.70
2023-05-23T06:49:18.447Z,31.27
2023-05-23T06:51:46.663Z,30.92
2023-05-23T06:54:15.398Z,30.70
2023-05-23T06:56:42.925Z,29.40
2023-05-23T06:59:10.648Z,31.73
2023-05-23T07:01:38.233Z,29.85
2023-05-23T07:04:06.683Z,30.00
2023-05-23T07:06:36.627Z,28.92
2023-05-23T07:09:05.531Z,29.48
2023-05-23T07:11:33.253Z,30.73
2023-05-23T07:14:00.899Z,31.80
2023-05-23T07:16:37.606Z,30.20
2023-05-23T07:19:08.572Z,32.33
2023-05-23T07:21:49.111Z,32.92
2023-05-23T07:24:25.298Z,33.33
2023-05-23T07:26:55.638Z,34.55
2023-05-23T07:29:23.683Z,31.98
2023-05-23T07:31:54.270Z,33.10
2023-05-23T07:34:23.195Z,33.45
2023-05-23T07:36:54.761Z,32.65
2023-05-23T07:39:24.579Z,32.63
2023-05-23T07:41:53.588Z,31.95
2023-05-23T07:44:23.963Z,31.55
2023-05-23T07:46:52.927Z,30.80
2023-05-23T07:49:20.996Z,28.92
2023-05-23T07:51:48.375Z,27.42
2023-05-23T07:54:16.812Z,27.50
2023-05-23T07:56:45.260Z,25.08
2023-05-23T07:59:13.536Z,24.17
2023-05-23T08:01:42.358Z,23.40
2023-05-23T08:04:13.698Z,23.02
2023-05-23T08:07:00.953Z,22.95
2023-05-23T08:09:46.448Z,20.90
2023-05-23T08:12:17.102Z,22.50
2023-05-23T08:14:51.864Z,20.73
2023-05-23T08:17:33.010Z,20.65
2023-05-23T08:20:01.441Z,21.55
2023-05-23T08:22:30.964Z,23.50
2023-05-23T08:24:59.505Z,22.48
2023-05-23T08:27:30.391Z,22.95
2023-05-23T08:30:03.911Z,22.15
2023-05-23T08:32:31.615Z,21.52
2023-05-23T08:34:59.133Z,21.60
2023-05-23T08:37:26.861Z,21.42
2023-05-23T08:39:54.145Z,18.83
2023-05-23T08:42:36.401Z,18.60
2023-05-23T08:45:07.170Z,18.92
2023-05-23T08:47:38.726Z,17.98
2023-05-23T08:50:19.306Z,18.38
2023-05-23T08:52:56.034Z,18.75
2023-05-23T08:55:29.344Z,16.70
2023-05-23T08:58:00.313Z,17.00
2023-05-23T09:00:37.003Z,18.05
2023-05-23T09:03:05.441Z,16.63
2023-05-23T09:05:45.281Z,16.15
2023-05-23T09:08:13.256Z,15.50
2023-05-23T09:10:42.932Z,15.90
2023-05-23T09:13:12.705Z,15.65
2023-05-23T09:16:00.419Z,18.38
2023-05-23T09:18:42.500Z,137.75
2023-05-23T09:21:13.596Z,66.90
2023-05-23T09:23:51.098Z,44.92
2023-05-23T09:26:19.791Z,29.88
2023-05-23T09:28:47.128Z,18.40
2023-05-23T09:31:16.344Z,20.23
2023-05-23T09:33:50.228Z,17.48
2023-05-23T09:36:19.580Z,19.42
2023-05-23T09:38:49.045Z,14.40
2023-05-23T09:41:16.600Z,15.60
2023-05-23T09:43:55.110Z,30.85
2023-05-23T09:46:22.969Z,15.18
2023-05-23T09:48:53.057Z,18.58
2023-05-23T09:51:23.575Z,23.17
2023-05-23T09:53:57.048Z,14.02
2023-05-23T09:56:28.504Z,13.10
2023-05-23T09:58:59.024Z,16.60
2023-05-23T10:01:28.742Z,17.60
2023-05-23T10:04:00.027Z,16.92
2023-05-23T10:06:53.356Z,14.43
2023-05-23T10:09:25.795Z,12.50
2023-05-23T10:12:33.207Z,13.18
2023-05-23T10:15:06.960Z,12.65
2023-05-23T10:18:01.278Z,12.63
2023-05-23T10:20:33.462Z,12.35
2023-05-23T10:23:02.746Z,12.77
2023-05-23T10:25:30.442Z,13.07
2023-05-23T10:28:02.382Z,12.50
2023-05-23T10:30:30.892Z,13.13
2023-05-23T10:32:59.780Z,11.93
2023-05-23T10:36:30.817Z,12.40
2023-05-23T10:39:15.432Z,13.55
2023-05-23T10:42:21.673Z,12.27
2023-05-23T10:44:48.916Z,11.95
2023-05-23T10:47:28.754Z,12.35
2023-05-23T10:49:56.734Z,12.35
2023-05-23T10:52:28.007Z,11.70
2023-05-23T10:54:58.376Z,10.88
2023-05-23T10:57:28.811Z,11.55
2023-05-23T10:59:56.542Z,12.10
2023-05-23T11:02:29.210Z,12.32
2023-05-23T11:05:22.907Z,11.52
2023-05-23T11:08:14.304Z,11.73
2023-05-23T11:11:04.708Z,10.35
2023-05-23T11:13:55.939Z,10.70
2023-05-23T11:16:41.065Z,10.32
2023-05-23T11:19:26.079Z,10.02
2023-05-23T11:22:03.689Z,9.35
2023-05-23T11:24:55.580Z,9.20
2023-05-23T11:27:34.800Z,9.07
2023-05-23T11:30:11.026Z,9.13
2023-05-23T11:32:38.556Z,8.60
2023-05-23T11:35:11.542Z,8.45
2023-05-23T11:37:40.200Z,7.90
2023-05-23T11:40:38.545Z,7.68
2023-05-23T11:43:13.914Z,7.55
2023-05-23T11:45:42.867Z,7.25
2023-05-23T11:48:18.125Z,7.63
2023-05-23T11:50:54.470Z,6.60
2023-05-23T11:53:25.651Z,6.45
2023-05-23T11:56:00.357Z,6.30
2023-05-23T11:58:38.428Z,6.57
2023-05-23T12:01:11.484Z,6.20
2023-05-23T12:03:51.264Z,5.43
2023-05-23T12:06:24.808Z,5.90
2023-05-23T12:08:52.889Z,6.35
2023-05-23T12:11:20.631Z,5.93
2023-05-23T12:13:47.958Z,7.65
2023-05-23T12:16:18.549Z,7.45
2023-05-23T12:18:46.087Z,7.78
2023-05-23T12:21:13.235Z,7.05
2023-05-23T12:23:42.113Z,7.30
2023-05-23T12:26:12.391Z,7.78
2023-05-23T12:28:45.479Z,7.80
2023-05-23T12:31:22.378Z,7.13
2023-05-23T12:33:53.190Z,6.85
2023-05-23T12:36:33.121Z,6.80
2023-05-23T12:39:05.831Z,6.35
2023-05-23T12:41:34.034Z,5.85
2023-05-23T12:44:03.076Z,6.50
2023-05-23T12:46:30.445Z,6.30
2023-05-23T12:48:57.790Z,7.03
2023-05-23T12:51:25.106Z,6.63
2023-05-23T12:53:54.816Z,6.55
2023-05-23T12:56:26.016Z,6.40
2023-05-23T12:58:54.313Z,5.70
2023-05-23T13:01:21.998Z,5.88
2023-05-23T13:03:50.726Z,6.22
2023-05-23T13:06:18.460Z,7.00
2023-05-23T13:08:46.124Z,5.85
2023-05-23T13:11:13.820Z,6.00
2023-05-23T13:13:41.794Z,5.65
2023-05-23T13:16:09.678Z,5.90
2023-05-23T13:18:37.525Z,5.75
2023-05-23T13:21:05.475Z,5.75
2023-05-23T13:23:33.574Z,5.35
2023-05-23T13:26:02.786Z,5.47
2023-05-23T13:28:30.051Z,5.22
2023-05-23T13:30:57.348Z,5.47
2023-05-23T13:33:24.782Z,4.95
2023-05-23T13:35:52.622Z,4.80
2023-05-23T13:38:21.143Z,5.15
2023-05-23T13:40:51.124Z,4.88
2023-05-23T13:43:19.034Z,4.82
2023-05-23T13:45:47.442Z,4.90
2023-05-23T13:48:14.920Z,4.90
2023-05-23T13:50:43.664Z,4.45
2023-05-23T13:53:15.285Z,4.03
2023-05-23T13:55:45.365Z,3.97
2023-05-23T13:58:13.079Z,4.30
2023-05-23T14:00:41.264Z,3.85
2023-05-23T14:03:09.920Z,3.80
2023-05-23T14:05:38.923Z,4.15
2023-05-23T14:08:06.865Z,4.28
2023-05-23T14:10:34.514Z,4.03
2023-05-23T14:13:02.080Z,3.97
2023-05-23T14:15:29.835Z,3.83
2023-05-23T14:17:58.573Z,3.70
2023-05-23T14:20:26.334Z,4.05
2023-05-23T14:22:54.162Z,3.65
2023-05-23T14:25:23.242Z,3.38
2023-05-23T14:27:50.713Z,3.65
2023-05-23T14:30:18.312Z,3.67
2023-05-23T14:32:45.728Z,3.47
2023-05-23T14:35:13.252Z,3.65
2023-05-23T14:37:40.798Z,3.63
2023-05-23T14:40:10.384Z,3.47
2023-05-23T14:42:37.904Z,3.35
2023-05-23T14:45:06.386Z,3.50
2023-05-23T14:47:33.969Z,3.45
2023-05-23T14:50:01.514Z,3.35
2023-05-23T14:52:29.785Z,3.83
2023-05-23T14:54:57.322Z,3.55
2023-05-23T14:57:24.677Z,3.70
2023-05-23T14:59:51.863Z,3.40
2023-05-23T15:02:19.925Z,3.13
2023-05-23T15:04:48.617Z,3.35
2023-05-23T15:07:18.359Z,2.80
2023-05-23T15:09:47.692Z,2.90
2023-05-23T15:12:15.505Z,3.00
2023-05-23T15:14:43.595Z,3.10
2023-05-23T15:17:13.052Z,2.75
2023-05-23T15:19:43.220Z,2.92
2023-05-23T15:22:29.856Z,3.00
2023-05-23T15:25:00.725Z,3.00
2023-05-23T15:27:28.015Z,2.83
2023-05-23T15:29:55.314Z,2.53
2023-05-23T15:32:22.721Z,2.65
2023-05-23T15:34:50.436Z,2.80
2023-05-23T15:37:18.258Z,2.88
2023-05-23T15:39:45.684Z,2.90
2023-05-23T15:42:12.884Z,3.03
2023-05-23T15:44:40.312Z,2.83
2023-05-23T15:47:07.566Z,2.80
2023-05-23T15:49:35.891Z,2.80
2023-05-23T15:52:03.250Z,3.10
2023-05-23T15:54:30.602Z,2.72
2023-05-23T15:56:57.984Z,2.50
2023-05-23T15:59:25.326Z,3.00
2023-05-23T16:01:52.685Z,3.10
2023-05-23T16:04:20.107Z,3.10
2023-05-23T16:06:47.500Z,2.58
2023-05-23T16:09:14.895Z,2.90
2023-05-23T16:11:42.835Z,3.10
2023-05-23T16:14:10.119Z,3.20
2023-05-23T16:16:38.359Z,3.15
2023-05-23T16:19:07.784Z,3.35
2023-05-23T16:21:36.571Z,3.38
2023-05-23T16:24:05.809Z,3.50
2023-05-23T16:26:33.329Z,3.72
2023-05-23T16:29:00.729Z,2.97
2023-05-23T16:31:29.480Z,3.30
2023-05-23T16:33:56.862Z,3.30
2023-05-23T16:36:24.137Z,3.35
2023-05-23T16:38:52.972Z,3.35
2023-05-23T16:41:21.980Z,2.90
2023-05-23T16:43:49.258Z,4.00
2023-05-23T16:46:19.000Z,3.45
2023-05-23T16:48:48.685Z,4.10
2023-05-23T16:51:16.629Z,4.15
2023-05-23T16:53:44.331Z,4.32
2023-05-23T16:56:11.700Z,4.53
2023-05-23T16:58:39.118Z,4.65
2023-05-23T17:01:08.091Z,4.35
2023-05-23T17:03:35.656Z,5.15
2023-05-23T17:06:03.440Z,4.97
2023-05-23T17:08:31.084Z,5.45
2023-05-23T17:10:58.458Z,5.40
2023-05-23T17:13:26.204Z,5.82
2023-05-23T17:15:53.536Z,6.05
2023-05-23T17:18:20.912Z,5.82
2023-05-23T17:20:48.553Z,5.70
2023-05-23T17:23:19.011Z,5.80
2023-05-23T17:25:46.462Z,5.28
2023-05-23T17:28:13.775Z,5.80
2023-05-23T17:30:41.128Z,5.65
2023-05-23T17:33:12.456Z,5.63
2023-05-23T17:35:41.767Z,6.00
2023-05-23T17:38:09.211Z,5.75
2023-05-23T17:40:36.501Z,5.57
2023-05-23T17:43:03.888Z,5.65
2023-05-23T17:45:31.498Z,5.82
2023-05-23T17:48:03.329Z,5.88
2023-05-23T17:50:31.028Z,5.15
2023-05-23T17:52:59.126Z,5.15
2023-05-23T17:55:26.721Z,4.72
2023-05-23T17:57:53.941Z,4.60
2023-05-23T18:00:21.733Z,4.20
2023-05-23T18:02:51.108Z,4.07
2023-05-23T18:05:20.731Z,4.30
2023-05-23T18:07:47.963Z,3.97
2023-05-23T18:10:15.537Z,4.00
2023-05-23T18:12:42.944Z,3.78
2023-05-23T18:15:11.116Z,3.90
2023-05-23T18:17:38.476Z,3.50
2023-05-23T18:20:07.494Z,3.60
2023-05-23T18:22:34.921Z,3.03
2023-05-23T18:25:02.300Z,3.05
2023-05-23T18:27:31.400Z,3.40
2023-05-23T18:29:58.869Z,3.08
2023-05-23T18:32:26.286Z,3.10
2023-05-23T18:34:53.571Z,3.35
2023-05-23T18:37:20.843Z,2.88
2023-05-23T18:39:48.220Z,3.03
2023-05-23T18:42:15.525Z,2.63
2023-05-23T18:44:43.083Z,3.45
2023-05-23T18:47:10.714Z,5.38
2023-05-23T18:49:38.744Z,4.68
2023-05-23T18:52:06.822Z,2.88
2023-05-23T18:54:34.373Z,3.00
2023-05-23T18:57:03.251Z,2.65
2023-05-23T18:59:30.891Z,2.20
2023-05-23T19:02:00.309Z,2.67
2023-05-23T19:04:27.753Z,1.77
2023-05-23T19:06:55.238Z,1.80
2023-05-23T19:09:22.632Z,1.80
2023-05-23T19:11:50.178Z,1.80
2023-05-23T19:14:18.024Z,1.75
2023-05-23T19:16:46.454Z,1.70
2023-05-23T19:19:14.749Z,1.50
2023-05-23T19:21:42.763Z,1.67
2023-05-23T19:24:10.467Z,1.80
2023-05-23T19:26:40.333Z,2.20
2023-05-23T19:29:08.113Z,1.55
2023-05-23T19:31:38.410Z,1.50
2023-05-23T19:34:10.310Z,1.42
2023-05-23T19:36:39.174Z,1.70
2023-05-23T19:39:07.586Z,1.48
2023-05-23T19:41:35.392Z,1.52
2023-05-23T19:44:03.356Z,1.65
2023-05-23T19:46:35.256Z,1.75
2023-05-23T19:49:03.889Z,1.75
2023-05-23T19:51:31.847Z,2.03
2023-05-23T19:54:04.874Z,1.70
2023-05-23T19:56:34.648Z,1.60
2023-05-23T19:59:10.944Z,1.55
2023-05-23T20:01:41.905Z,1.95
2023-05-23T20:04:12.869Z,1.90
2023-05-23T20:06:40.903Z,1.95
2023-05-23T20:09:11.882Z,1.88
2023-05-23T20:11:39.795Z,2.15
2023-05-23T20:14:16.833Z,2.40
2023-05-23T20:16:49.296Z,2.20
2023-05-23T20:19:17.158Z,2.28
2023-05-23T20:21:45.862Z,2.08
2023-05-23T20:24:18.086Z,2.25
2023-05-23T20:26:51.279Z,1.98
2023-05-23T20:29:24.110Z,2.15
2023-05-23T20:31:52.788Z,2.40
2023-05-23T20:34:27.128Z,2.17
2023-05-23T20:36:55.037Z,2.05
2023-05-23T20:39:28.177Z,2.60
2023-05-23T20:41:56.276Z,2.40
2023-05-23T20:44:24.551Z,2.45
2023-05-23T20:46:52.456Z,2.72
2023-05-23T20:49:28.097Z,2.40
2023-05-23T20:52:01.610Z,2.80
2023-05-23T20:54:30.328Z,2.58
2023-05-23T20:56:59.000Z,2.83
2023-05-23T20:59:26.965Z,2.30
2023-05-23T21:01:55.106Z,2.50
2023-05-23T21:04:23.274Z,2.67
2023-05-23T21:06:52.624Z,2.30
2023-05-23T21:09:23.576Z,2.53
2023-05-23T21:11:51.414Z,3.08
2023-05-23T21:14:21.457Z,3.00
2023-05-23T21:16:49.035Z,3.20
2023-05-23T21:19:16.897Z,2.80
2023-05-23T21:21:44.777Z,2.90
2023-05-23T21:24:14.444Z,4.28
2023-05-23T21:26:42.416Z,4.30
2023-05-23T21:29:10.193Z,3.22
2023-05-23T21:31:43.427Z,2.83
2023-05-23T21:34:23.072Z,3.38
2023-05-23T21:36:53.625Z,2.72
2023-05-23T21:39:21.284Z,3.13
2023-05-23T21:41:48.939Z,2.97
2023-05-23T21:44:17.776Z,3.03
2023-05-23T21:46:45.897Z,2.78
2023-05-23T21:49:13.690Z,3.00
2023-05-23T21:51:42.393Z,3.00
2023-05-23T21:54:10.906Z,2.90
2023-05-23T21:56:38.915Z,2.90
2023-05-23T21:59:07.201Z,3.20
2023-05-23T22:01:36.166Z,2.95
2023-05-23T22:04:06.827Z,2.80
2023-05-23T22:06:34.639Z,2.95
2023-05-23T22:09:05.550Z,2.83
2023-05-23T22:11:34.337Z,3.08
2023-05-23T22:14:04.802Z,2.83
2023-05-23T22:16:41.821Z,3.33
2023-05-23T22:19:10.356Z,3.17
2023-05-23T22:21:39.244Z,3.05
2023-05-23T22:24:07.754Z,2.88
2023-05-23T22:26:39.283Z,3.20
2023-05-23T22:29:07.254Z,3.10
2023-05-23T22:31:35.623Z,3.10
2023-05-23T22:34:06.469Z,2.83
2023-05-23T22:36:37.824Z,3.38
2023-05-23T22:39:06.028Z,2.80
2023-05-23T22:41:34.539Z,2.80
2023-05-23T22:44:04.791Z,2.90
2023-05-23T22:46:32.338Z,3.28
2023-05-23T22:49:00.667Z,3.13
2023-05-23T22:51:29.472Z,2.72
2023-05-23T22:53:57.501Z,3.13
2023-05-23T22:56:25.248Z,3.03
2023-05-23T22:58:53.028Z,3.10
2023-05-23T23:01:20.684Z,3.05
2023-05-23T23:03:54.131Z,3.30
2023-05-23T23:06:22.141Z,2.83
2023-05-23T23:08:50.002Z,2.92
2023-05-23T23:11:19.888Z,3.22
2023-05-23T23:13:47.381Z,3.10
2023-05-23T23:16:14.746Z,3.30
2023-05-23T23:18:42.161Z,3.10
2023-05-23T23:21:09.663Z,3.15
2023-05-23T23:23:38.341Z,2.78
2023-05-23T23:26:06.057Z,3.10
2023-05-23T23:28:33.760Z,2.70
2023-05-23T23:31:01.516Z,2.90
2023-05-23T23:33:28.880Z,2.55
2023-05-23T23:35:56.529Z,2.72
2023-05-23T23:38:23.922Z,3.13
2023-05-23T23:40:51.318Z,2.92
2023-05-23T23:43:18.878Z,2.67
2023-05-23T23:45:46.447Z,2.90
2023-05-23T23:48:14.888Z,3.10
2023-05-23T23:50:42.775Z,2.92
2023-05-23T23:53:12.648Z,2.92
2023-05-23T23:55:41.296Z,2.85
2023-05-23T23:58:09.013Z,3.30
